sensor_id;sensor_type;location;lat;lon;timestamp;pressure;altitude;pressure_sealevel;temperature;humidity
52032;BME280;38044;45.148;39.604;2023-02-18T00:01:23;101291.31;;;2.83;81.06
52032;BME280;38044;45.148;39.604;2023-02-18T00:03:49;101340.41;;;3.11;81.42
52032;BME280;38044;45.148;39.604;2023-02-18T00:06:15;101378.19;;;3.31;81.32
52032;BME280;38044;45.148;39.604;2023-02-18T00:08:43;101371.63;;;3.34;81.64
52032;BME280;38044;45.148;39.604;2023-02-18T00:11:10;101375.34;;;3.33;81.54
52032;BME280;38044;45.148;39.604;2023-02-18T00:13:36;101327.59;;;3.26;81.47
52032;BME280;38044;45.148;39.604;2023-02-18T00:16:06;101342.34;;;3.41;81.15
52032;BME280;38044;45.148;39.604;2023-02-18T00:18:33;101349.84;;;3.44;80.89
52032;BME280;38044;45.148;39.604;2023-02-18T00:20:59;101340.38;;;3.48;80.92
52032;BME280;38044;45.148;39.604;2023-02-18T00:23:27;101350.06;;;3.42;80.69
52032;BME280;38044;45.148;39.604;2023-02-18T00:26:07;101203.38;;;2.55;81.07
52032;BME280;38044;45.148;39.604;2023-02-18T00:28:34;101340.09;;;3.37;81.17
52032;BME280;38044;45.148;39.604;2023-02-18T00:31:12;101349.53;;;3.52;81.17
52032;BME280;38044;45.148;39.604;2023-02-18T00:33:39;101341.00;;;3.31;80.85
52032;BME280;38044;45.148;39.604;2023-02-18T00:36:07;101263.41;;;2.92;81.17
52032;BME280;38044;45.148;39.604;2023-02-18T00:38:34;101223.88;;;2.66;81.56
52032;BME280;38044;45.148;39.604;2023-02-18T00:41:00;101319.16;;;3.29;81.52
52032;BME280;38044;45.148;39.604;2023-02-18T00:43:26;101316.06;;;3.32;81.73
52032;BME280;38044;45.148;39.604;2023-02-18T00:45:52;101298.13;;;3.28;81.70
52032;BME280;38044;45.148;39.604;2023-02-18T00:48:19;101321.06;;;3.41;81.78
52032;BME280;38044;45.148;39.604;2023-02-18T00:50:45;101339.72;;;3.52;82.15
52032;BME280;38044;45.148;39.604;2023-02-18T00:53:12;101300.69;;;3.34;82.13
52032;BME280;38044;45.148;39.604;2023-02-18T00:55:46;101331.31;;;3.55;82.47
52032;BME280;38044;45.148;39.604;2023-02-18T00:58:12;101295.25;;;3.29;82.23
52032;BME280;38044;45.148;39.604;2023-02-18T01:00:38;101341.69;;;3.57;82.26
52032;BME280;38044;45.148;39.604;2023-02-18T01:03:05;101193.66;;;2.67;82.44
52032;BME280;38044;45.148;39.604;2023-02-18T01:05:33;101262.38;;;3.12;82.41
52032;BME280;38044;45.148;39.604;2023-02-18T01:07:59;101342.28;;;3.59;82.41
52032;BME280;38044;45.148;39.604;2023-02-18T01:10:25;101330.59;;;3.60;82.40
52032;BME280;38044;45.148;39.604;2023-02-18T01:12:51;101334.31;;;3.59;82.16
52032;BME280;38044;45.148;39.604;2023-02-18T01:15:17;101186.13;;;2.64;82.23
52032;BME280;38044;45.148;39.604;2023-02-18T01:17:44;101310.56;;;3.46;82.58
52032;BME280;38044;45.148;39.604;2023-02-18T01:20:11;101267.94;;;3.22;82.35
52032;BME280;38044;45.148;39.604;2023-02-18T01:22:37;101340.75;;;3.51;82.89
52032;BME280;38044;45.148;39.604;2023-02-18T01:25:04;101325.19;;;3.55;82.91
52032;BME280;38044;45.148;39.604;2023-02-18T01:27:29;101328.84;;;3.54;83.02
52032;BME280;38044;45.148;39.604;2023-02-18T01:29:55;101328.84;;;3.54;83.28
52032;BME280;38044;45.148;39.604;2023-02-18T01:32:21;101320.28;;;3.52;83.56
52032;BME280;38044;45.148;39.604;2023-02-18T01:34:47;101321.47;;;3.56;83.34
52032;BME280;38044;45.148;39.604;2023-02-18T01:37:13;101321.47;;;3.56;83.17
52032;BME280;38044;45.148;39.604;2023-02-18T01:39:39;101299.47;;;3.49;83.44
52032;BME280;38044;45.148;39.604;2023-02-18T01:42:05;101319.41;;;3.58;83.63
52032;BME280;38044;45.148;39.604;2023-02-18T01:44:32;101320.56;;;3.62;83.25
52032;BME280;38044;45.148;39.604;2023-02-18T01:46:58;101178.81;;;2.78;83.47
52032;BME280;38044;45.148;39.604;2023-02-18T01:49:33;101259.34;;;3.38;83.15
52032;BME280;38044;45.148;39.604;2023-02-18T01:52:07;101167.09;;;2.67;83.19
52032;BME280;38044;45.148;39.604;2023-02-18T01:54:37;101319.91;;;3.67;83.15
52032;BME280;38044;45.148;39.604;2023-02-18T01:57:34;101324.97;;;3.68;83.44
52032;BME280;38044;45.148;39.604;2023-02-18T02:00:06;101213.16;;;2.91;83.28
52032;BME280;38044;45.148;39.604;2023-02-18T02:02:35;101325.88;;;3.62;83.32
52032;BME280;38044;45.148;39.604;2023-02-18T02:05:02;101313.13;;;3.52;83.43
52032;BME280;38044;45.148;39.604;2023-02-18T02:07:28;101282.06;;;3.34;84.63
52032;BME280;38044;45.148;39.604;2023-02-18T02:09:56;101312.44;;;3.57;85.18
52032;BME280;38044;45.148;39.604;2023-02-18T02:20:58;101313.88;;;3.71;85.62
52032;BME280;38044;45.148;39.604;2023-02-18T02:26:49;101174.63;;;2.70;85.60
52032;BME280;38044;45.148;39.604;2023-02-18T02:43:20;101329.13;;;3.64;85.92
52032;BME280;38044;45.148;39.604;2023-02-18T02:46:11;101216.31;;;3.00;85.84
52032;BME280;38044;45.148;39.604;2023-02-18T02:48:59;101288.78;;;3.37;85.83
52032;BME280;38044;45.148;39.604;2023-02-18T02:54:19;101286.06;;;3.44;85.67
52032;BME280;38044;45.148;39.604;2023-02-18T02:56:46;101297.50;;;3.44;85.85
52032;BME280;38044;45.148;39.604;2023-02-18T02:59:15;101184.50;;;2.63;85.70
52032;BME280;38044;45.148;39.604;2023-02-18T03:07:13;101331.19;;;3.62;85.53
52032;BME280;38044;45.148;39.604;2023-02-18T03:15:20;101335.47;;;3.63;85.28
52032;BME280;38044;45.148;39.604;2023-02-18T03:20:30;101343.59;;;3.68;85.65
52032;BME280;38044;45.148;39.604;2023-02-18T03:23:00;101342.19;;;3.66;85.37
52032;BME280;38044;45.148;39.604;2023-02-18T03:25:30;101332.00;;;3.63;85.25
52032;BME280;38044;45.148;39.604;2023-02-18T03:28:04;101197.84;;;2.75;84.78
52032;BME280;38044;45.148;39.604;2023-02-18T03:30:36;101333.56;;;3.52;85.00
52032;BME280;38044;45.148;39.604;2023-02-18T03:33:07;101348.66;;;3.58;84.95
52032;BME280;38044;45.148;39.604;2023-02-18T03:35:35;101340.19;;;3.49;84.75
52032;BME280;38044;45.148;39.604;2023-02-18T03:38:14;101348.50;;;3.53;84.99
52032;BME280;38044;45.148;39.604;2023-02-18T03:40:42;101322.53;;;3.36;85.32
52032;BME280;38044;45.148;39.604;2023-02-18T03:43:09;101344.09;;;3.47;85.21
52032;BME280;38044;45.148;39.604;2023-02-18T03:45:34;101352.06;;;3.47;85.28
52032;BME280;38044;45.148;39.604;2023-02-18T03:48:00;101295.63;;;3.14;85.52
52032;BME280;38044;45.148;39.604;2023-02-18T03:50:26;101204.13;;;2.62;85.56
52032;BME280;38044;45.148;39.604;2023-02-18T03:52:52;101307.13;;;3.27;85.50
52032;BME280;38044;45.148;39.604;2023-02-18T03:55:18;101302.13;;;3.19;85.92
52032;BME280;38044;45.148;39.604;2023-02-18T03:57:44;101343.50;;;3.45;85.97
52032;BME280;38044;45.148;39.604;2023-02-18T04:00:10;101305.13;;;3.22;85.72
52032;BME280;38044;45.148;39.604;2023-02-18T04:02:36;101307.19;;;3.20;86.01
52032;BME280;38044;45.148;39.604;2023-02-18T04:05:02;101349.41;;;3.47;85.95
52032;BME280;38044;45.148;39.604;2023-02-18T04:07:28;101351.03;;;3.48;85.96
52032;BME280;38044;45.148;39.604;2023-02-18T04:09:54;101359.22;;;3.46;85.91
52032;BME280;38044;45.148;39.604;2023-02-18T04:12:20;101182.75;;;2.38;85.93
52032;BME280;38044;45.148;39.604;2023-02-18T04:14:45;101333.97;;;3.37;86.22
52032;BME280;38044;45.148;39.604;2023-02-18T04:17:11;101190.53;;;2.52;86.09
52032;BME280;38044;45.148;39.604;2023-02-18T04:19:37;101329.03;;;3.41;86.34
52032;BME280;38044;45.148;39.604;2023-02-18T04:22:03;101368.44;;;3.62;86.30
52032;BME280;38044;45.148;39.604;2023-02-18T04:24:29;101245.38;;;2.94;86.03
52032;BME280;38044;45.148;39.604;2023-02-18T04:26:54;101297.56;;;3.37;86.28
52032;BME280;38044;45.148;39.604;2023-02-18T04:29:20;101319.03;;;3.54;86.33
52032;BME280;38044;45.148;39.604;2023-02-18T04:31:46;101342.13;;;3.72;86.47
52032;BME280;38044;45.148;39.604;2023-02-18T04:34:12;101355.19;;;3.74;86.57
52032;BME280;38044;45.148;39.604;2023-02-18T04:36:37;101330.03;;;3.58;86.36
52032;BME280;38044;45.148;39.604;2023-02-18T04:39:03;101169.75;;;2.67;86.39
52032;BME280;38044;45.148;39.604;2023-02-18T04:41:29;101242.72;;;3.13;86.43
52032;BME280;38044;45.148;39.604;2023-02-18T04:43:55;101333.56;;;3.70;86.46
52032;BME280;38044;45.148;39.604;2023-02-18T04:46:21;101187.44;;;2.73;86.28
52032;BME280;38044;45.148;39.604;2023-02-18T04:48:47;101331.19;;;3.62;86.52
52032;BME280;38044;45.148;39.604;2023-02-18T04:51:13;101188.84;;;2.76;86.54
52032;BME280;38044;45.148;39.604;2023-02-18T04:53:38;101351.47;;;3.75;86.58
52032;BME280;38044;45.148;39.604;2023-02-18T04:56:04;101350.22;;;3.77;86.50
52032;BME280;38044;45.148;39.604;2023-02-18T04:58:30;101174.84;;;2.68;86.32
52032;BME280;38044;45.148;39.604;2023-02-18T05:01:03;101204.97;;;2.92;86.22
52032;BME280;38044;45.148;39.604;2023-02-18T05:03:30;101325.66;;;3.64;86.31
52032;BME280;38044;45.148;39.604;2023-02-18T05:05:56;101321.22;;;3.57;86.01
52032;BME280;38044;45.148;39.604;2023-02-18T05:08:22;101220.47;;;2.96;85.93
52032;BME280;38044;45.148;39.604;2023-02-18T05:10:48;101363.78;;;3.88;86.11
52032;BME280;38044;45.148;39.604;2023-02-18T05:13:14;101322.91;;;3.70;85.49
52032;BME280;38044;45.148;39.604;2023-02-18T05:15:40;101367.59;;;3.92;85.62
52032;BME280;38044;45.148;39.604;2023-02-18T05:18:06;101353.22;;;3.69;85.75
52032;BME280;38044;45.148;39.604;2023-02-18T05:20:32;101367.69;;;3.85;85.85
52032;BME280;38044;45.148;39.604;2023-02-18T05:22:58;101217.66;;;2.90;85.83
52032;BME280;38044;45.148;39.604;2023-02-18T05:25:24;101374.88;;;3.84;86.15
52032;BME280;38044;45.148;39.604;2023-02-18T05:27:50;101341.22;;;3.78;86.25
52032;BME280;38044;45.148;39.604;2023-02-18T05:30:16;101341.22;;;3.78;86.05
52032;BME280;38044;45.148;39.604;2023-02-18T05:32:41;101369.09;;;3.88;86.14
52032;BME280;38044;45.148;39.604;2023-02-18T05:35:07;101361.25;;;3.93;86.19
52032;BME280;38044;45.148;39.604;2023-02-18T05:37:33;101345.63;;;3.84;85.79
52032;BME280;38044;45.148;39.604;2023-02-18T05:39:59;101320.63;;;3.86;85.66
52032;BME280;38044;45.148;39.604;2023-02-18T05:42:25;101314.63;;;3.78;85.20
52032;BME280;38044;45.148;39.604;2023-02-18T05:44:51;101200.13;;;3.20;85.13
52032;BME280;38044;45.148;39.604;2023-02-18T05:47:17;101343.47;;;4.05;84.94
52032;BME280;38044;45.148;39.604;2023-02-18T05:49:43;101198.16;;;3.15;84.59
52032;BME280;38044;45.148;39.604;2023-02-18T05:52:09;101367.91;;;4.25;84.38
52032;BME280;38044;45.148;39.604;2023-02-18T05:54:35;101371.63;;;4.24;84.31
52032;BME280;38044;45.148;39.604;2023-02-18T05:57:01;101330.16;;;4.05;84.23
52032;BME280;38044;45.148;39.604;2023-02-18T05:59:28;101352.41;;;4.22;83.94
52032;BME280;38044;45.148;39.604;2023-02-18T06:01:54;101352.09;;;4.31;83.96
52032;BME280;38044;45.148;39.604;2023-02-18T06:04:20;101332.38;;;4.08;83.87
52032;BME280;38044;45.148;39.604;2023-02-18T06:06:46;101348.34;;;4.20;83.85
52032;BME280;38044;45.148;39.604;2023-02-18T06:09:12;101245.97;;;3.57;83.83
52032;BME280;38044;45.148;39.604;2023-02-18T06:11:38;101244.50;;;3.61;83.78
52032;BME280;38044;45.148;39.604;2023-02-18T06:14:04;101186.16;;;3.24;83.95
52032;BME280;38044;45.148;39.604;2023-02-18T06:16:30;101363.66;;;4.24;84.01
52032;BME280;38044;45.148;39.604;2023-02-18T06:18:56;101169.00;;;3.08;84.46
52032;BME280;38044;45.148;39.604;2023-02-18T06:21:22;101243.31;;;3.57;84.66
52032;BME280;38044;45.148;39.604;2023-02-18T06:23:47;101235.34;;;3.57;85.00
52032;BME280;38044;45.148;39.604;2023-02-18T06:26:13;101339.25;;;4.39;85.15
52032;BME280;38044;45.148;39.604;2023-02-18T06:28:39;101175.13;;;3.51;84.84
52032;BME280;38044;45.148;39.604;2023-02-18T06:31:05;101277.22;;;4.15;84.82
52032;BME280;38044;45.148;39.604;2023-02-18T06:33:31;101300.25;;;4.45;84.81
52032;BME280;38044;45.148;39.604;2023-02-18T06:36:00;101340.97;;;4.69;85.01
52032;BME280;38044;45.148;39.604;2023-02-18T06:38:26;101185.09;;;3.67;84.57
52032;BME280;38044;45.148;39.604;2023-02-18T06:40:52;101341.81;;;4.69;84.55
52032;BME280;38044;45.148;39.604;2023-02-18T06:43:19;101288.31;;;4.36;84.63
52032;BME280;38044;45.148;39.604;2023-02-18T06:45:45;101275.00;;;4.24;84.67
52032;BME280;38044;45.148;39.604;2023-02-18T06:48:11;101228.72;;;3.90;84.82
52032;BME280;38044;45.148;39.604;2023-02-18T06:50:39;101314.13;;;4.47;84.55
52032;BME280;38044;45.148;39.604;2023-02-18T06:53:04;101183.69;;;3.53;84.71
52032;BME280;38044;45.148;39.604;2023-02-18T06:55:30;101227.78;;;3.84;84.53
52032;BME280;38044;45.148;39.604;2023-02-18T06:57:56;101308.91;;;4.28;84.88
52032;BME280;38044;45.148;39.604;2023-02-18T07:00:22;101334.97;;;4.50;84.66
52032;BME280;38044;45.148;39.604;2023-02-18T07:02:48;101348.63;;;4.54;84.59
52032;BME280;38044;45.148;39.604;2023-02-18T07:05:14;101171.06;;;3.48;84.51
52032;BME280;38044;45.148;39.604;2023-02-18T07:07:40;101322.59;;;4.44;84.75
52032;BME280;38044;45.148;39.604;2023-02-18T07:10:06;101282.53;;;4.15;85.24
52032;BME280;38044;45.148;39.604;2023-02-18T07:12:32;101284.16;;;4.16;85.18
52032;BME280;38044;45.148;39.604;2023-02-18T07:14:58;101305.91;;;4.37;85.37
52032;BME280;38044;45.148;39.604;2023-02-18T07:17:24;101322.13;;;4.47;85.44
52032;BME280;38044;45.148;39.604;2023-02-18T07:19:50;101171.53;;;3.57;85.25
52032;BME280;38044;45.148;39.604;2023-02-18T07:22:16;101291.53;;;4.38;85.52
52032;BME280;38044;45.148;39.604;2023-02-18T07:24:42;101283.22;;;4.34;85.16
52032;BME280;38044;45.148;39.604;2023-02-18T07:27:08;101250.13;;;4.18;85.02
52032;BME280;38044;45.148;39.604;2023-02-18T07:29:33;101312.16;;;4.54;85.31
52032;BME280;38044;45.148;39.604;2023-02-18T07:31:59;101231.25;;;4.08;84.60
52032;BME280;38044;45.148;39.604;2023-02-18T07:34:25;101142.31;;;3.57;84.57
52032;BME280;38044;45.148;39.604;2023-02-18T07:36:51;101155.59;;;3.69;84.24
52032;BME280;38044;45.148;39.604;2023-02-18T07:39:17;101224.88;;;4.09;84.17
52032;BME280;38044;45.148;39.604;2023-02-18T07:41:46;101284.72;;;4.42;84.43
52032;BME280;38044;45.148;39.604;2023-02-18T07:44:13;101321.88;;;4.60;84.89
52032;BME280;38044;45.148;39.604;2023-02-18T07:46:40;101328.25;;;4.59;84.90
52032;BME280;38044;45.148;39.604;2023-02-18T07:49:07;101328.84;;;4.61;85.17
52032;BME280;38044;45.148;39.604;2023-02-18T07:51:32;101199.78;;;3.81;85.33
52032;BME280;38044;45.148;39.604;2023-02-18T07:53:58;101298.72;;;4.49;85.67
52032;BME280;38044;45.148;39.604;2023-02-18T07:56:24;101185.56;;;3.88;85.77
52032;BME280;38044;45.148;39.604;2023-02-18T07:58:50;101285.78;;;4.53;85.80
52032;BME280;38044;45.148;39.604;2023-02-18T08:01:16;101278.72;;;4.46;86.25
52032;BME280;38044;45.148;39.604;2023-02-18T08:03:41;101089.59;;;3.42;85.86
52032;BME280;38044;45.148;39.604;2023-02-18T08:06:12;101271.88;;;4.62;86.01
52032;BME280;38044;45.148;39.604;2023-02-18T08:08:43;101317.09;;;4.86;85.79
52032;BME280;38044;45.148;39.604;2023-02-18T08:11:09;101295.91;;;4.91;85.76
52032;BME280;38044;45.148;39.604;2023-02-18T08:13:34;101308.88;;;4.99;85.33
52032;BME280;38044;45.148;39.604;2023-02-18T08:16:00;101292.56;;;4.95;85.35
52032;BME280;38044;45.148;39.604;2023-02-18T08:18:26;101292.41;;;5.02;84.91
52032;BME280;38044;45.148;39.604;2023-02-18T08:20:52;101233.16;;;4.71;85.03
52032;BME280;38044;45.148;39.604;2023-02-18T08:23:20;101170.88;;;4.32;84.88
52032;BME280;38044;45.148;39.604;2023-02-18T08:25:48;101300.69;;;5.17;84.84
52032;BME280;38044;45.148;39.604;2023-02-18T08:28:16;101294.44;;;5.24;84.87
52032;BME280;38044;45.148;39.604;2023-02-18T08:30:45;101172.66;;;4.55;84.47
52032;BME280;38044;45.148;39.604;2023-02-18T08:33:12;101291.06;;;5.28;84.54
52032;BME280;38044;45.148;39.604;2023-02-18T08:35:38;101271.84;;;5.43;84.33
52032;BME280;38044;45.148;39.604;2023-02-18T08:38:04;101272.88;;;5.71;84.52
52032;BME280;38044;45.148;39.604;2023-02-18T08:40:29;101278.19;;;6.16;83.88
52032;BME280;38044;45.148;39.604;2023-02-18T08:42:55;101255.53;;;6.58;82.65
52032;BME280;38044;45.148;39.604;2023-02-18T08:45:21;101228.97;;;6.68;81.94
52032;BME280;38044;45.148;39.604;2023-02-18T08:47:47;101252.19;;;6.89;80.83
52032;BME280;38044;45.148;39.604;2023-02-18T08:50:13;101187.41;;;6.33;80.85
52032;BME280;38044;45.148;39.604;2023-02-18T08:52:39;101248.59;;;6.57;81.10
52032;BME280;38044;45.148;39.604;2023-02-18T08:55:06;101257.75;;;6.44;81.49
52032;BME280;38044;45.148;39.604;2023-02-18T08:57:32;101245.25;;;6.27;81.87
52032;BME280;38044;45.148;39.604;2023-02-18T08:59:58;101085.06;;;5.16;81.79
52032;BME280;38044;45.148;39.604;2023-02-18T09:02:23;101066.00;;;5.07;82.19
52032;BME280;38044;45.148;39.604;2023-02-18T09:04:49;101202.78;;;5.92;82.42
52032;BME280;38044;45.148;39.604;2023-02-18T09:07:15;101250.94;;;6.14;82.38
52032;BME280;38044;45.148;39.604;2023-02-18T09:09:41;101241.22;;;6.08;82.41
52032;BME280;38044;45.148;39.604;2023-02-18T09:12:07;101211.47;;;5.99;82.46
52032;BME280;38044;45.148;39.604;2023-02-18T09:14:33;101179.38;;;5.94;82.29
52032;BME280;38044;45.148;39.604;2023-02-18T09:16:59;101202.16;;;6.41;81.83
52032;BME280;38044;45.148;39.604;2023-02-18T09:19:25;101203.00;;;7.12;81.22
52032;BME280;38044;45.148;39.604;2023-02-18T09:21:51;101206.41;;;7.62;79.58
52032;BME280;38044;45.148;39.604;2023-02-18T09:24:18;101200.91;;;8.16;78.06
52032;BME280;38044;45.148;39.604;2023-02-18T09:26:44;101165.56;;;8.72;74.54
52032;BME280;38044;45.148;39.604;2023-02-18T09:29:10;101174.22;;;8.99;73.66
52032;BME280;38044;45.148;39.604;2023-02-18T09:31:36;101054.88;;;8.97;72.28
52032;BME280;38044;45.148;39.604;2023-02-18T09:34:04;101178.19;;;10.40;70.48
52032;BME280;38044;45.148;39.604;2023-02-18T09:36:31;101169.91;;;10.11;69.81
52032;BME280;38044;45.148;39.604;2023-02-18T09:38:57;101023.75;;;9.42;69.58
52032;BME280;38044;45.148;39.604;2023-02-18T09:41:31;101159.06;;;10.47;67.92
52032;BME280;38044;45.148;39.604;2023-02-18T09:44:26;101157.69;;;10.54;67.03
52032;BME280;38044;45.148;39.604;2023-02-18T09:49:25;101148.59;;;10.50;66.43
52032;BME280;38044;45.148;39.604;2023-02-18T09:51:54;101142.44;;;10.89;65.75
52032;BME280;38044;45.148;39.604;2023-02-18T09:54:21;101130.00;;;10.54;65.00
52032;BME280;38044;45.148;39.604;2023-02-18T09:56:47;101126.31;;;10.89;64.68
52032;BME280;38044;45.148;39.604;2023-02-18T09:59:19;101059.59;;;10.47;63.48
52032;BME280;38044;45.148;39.604;2023-02-18T10:01:50;101052.50;;;10.11;64.60
52032;BME280;38044;45.148;39.604;2023-02-18T10:04:24;101117.91;;;10.56;63.60
52032;BME280;38044;45.148;39.604;2023-02-18T10:06:52;101118.50;;;10.38;64.00
52032;BME280;38044;45.148;39.604;2023-02-18T10:09:34;101077.97;;;10.24;64.01
52032;BME280;38044;45.148;39.604;2023-02-18T10:12:12;101099.75;;;10.28;64.10
52032;BME280;38044;45.148;39.604;2023-02-18T10:14:38;101073.56;;;9.84;64.00
52032;BME280;38044;45.148;39.604;2023-02-18T10:17:06;101083.19;;;9.95;64.72
52032;BME280;38044;45.148;39.604;2023-02-18T10:19:37;101068.09;;;10.04;63.98
52032;BME280;38044;45.148;39.604;2023-02-18T10:22:07;101061.72;;;9.90;64.54
52032;BME280;38044;45.148;39.604;2023-02-18T10:24:39;101053.06;;;10.03;64.33
52032;BME280;38044;45.148;39.604;2023-02-18T10:27:07;101083.50;;;10.53;64.37
52032;BME280;38044;45.148;39.604;2023-02-18T10:29:34;101080.13;;;10.77;63.50
52032;BME280;38044;45.148;39.604;2023-02-18T10:34:53;101074.09;;;11.24;62.62
52032;BME280;38044;45.148;39.604;2023-02-18T10:37:28;101041.53;;;10.97;62.93
52032;BME280;38044;45.148;39.604;2023-02-18T10:42:58;101064.06;;;11.35;62.74
52032;BME280;38044;45.148;39.604;2023-02-18T10:48:53;101052.19;;;10.73;62.86
52032;BME280;38044;45.148;39.604;2023-02-18T10:51:28;101017.84;;;10.10;63.42
52032;BME280;38044;45.148;39.604;2023-02-18T10:53:55;101021.72;;;9.88;63.87
52032;BME280;38044;45.148;39.604;2023-02-18T10:56:40;101043.41;;;10.02;63.86
52032;BME280;38044;45.148;39.604;2023-02-18T11:01:38;101034.94;;;9.69;64.54
52032;BME280;38044;45.148;39.604;2023-02-18T11:04:15;101027.38;;;9.82;63.74
52032;BME280;38044;45.148;39.604;2023-02-18T11:06:43;100884.13;;;8.72;63.43
52032;BME280;38044;45.148;39.604;2023-02-18T11:12:26;101026.44;;;9.27;63.53
52032;BME280;38044;45.148;39.604;2023-02-18T11:17:35;101029.63;;;9.49;63.65
52032;BME280;38044;45.148;39.604;2023-02-18T11:20:32;101009.66;;;9.81;62.22
52032;BME280;38044;45.148;39.604;2023-02-18T11:23:15;100984.47;;;9.61;62.40
52032;BME280;38044;45.148;39.604;2023-02-18T11:25:52;101006.47;;;9.68;62.50
52032;BME280;38044;45.148;39.604;2023-02-18T11:30:49;100834.03;;;8.67;61.64
52032;BME280;38044;45.148;39.604;2023-02-18T11:36:23;100990.53;;;9.92;61.28
52032;BME280;38044;45.148;39.604;2023-02-18T11:38:56;100966.22;;;9.74;61.45
52032;BME280;38044;45.148;39.604;2023-02-18T11:43:55;100958.16;;;9.74;61.26
52032;BME280;38044;45.148;39.604;2023-02-18T11:46:24;100967.25;;;9.78;61.15
52032;BME280;38044;45.148;39.604;2023-02-18T11:48:51;100951.22;;;9.57;61.14
52032;BME280;38044;45.148;39.604;2023-02-18T11:51:25;100951.81;;;9.44;61.48
52032;BME280;38044;45.148;39.604;2023-02-18T11:54:00;100953.19;;;9.36;61.60
52032;BME280;38044;45.148;39.604;2023-02-18T11:56:31;100954.00;;;9.32;61.22
52032;BME280;38044;45.148;39.604;2023-02-18T11:58:59;100962.63;;;9.13;61.68
52032;BME280;38044;45.148;39.604;2023-02-18T12:01:28;100914.66;;;8.81;61.12
52032;BME280;38044;45.148;39.604;2023-02-18T12:04:13;100961.56;;;9.04;61.47
52032;BME280;38044;45.148;39.604;2023-02-18T12:12:29;100922.19;;;8.74;61.84
52032;BME280;38044;45.148;39.604;2023-02-18T12:14:56;100965.59;;;8.86;61.71
52032;BME280;38044;45.148;39.604;2023-02-18T12:23:26;100976.06;;;8.67;62.56
52032;BME280;38044;45.148;39.604;2023-02-18T12:29:03;100965.88;;;8.39;63.70
52032;BME280;38044;45.148;39.604;2023-02-18T12:31:53;100964.19;;;8.22;64.82
52032;BME280;38044;45.148;39.604;2023-02-18T12:34:48;100886.44;;;7.71;65.01
52032;BME280;38044;45.148;39.604;2023-02-18T13:05:48;100899.38;;;8.25;64.85
52032;BME280;38044;45.148;39.604;2023-02-18T13:08:28;100927.22;;;8.29;64.68
52032;BME280;38044;45.148;39.604;2023-02-18T13:13:36;100918.09;;;8.15;65.09
52032;BME280;38044;45.148;39.604;2023-02-18T13:16:12;100802.88;;;7.43;65.58
52032;BME280;38044;45.148;39.604;2023-02-18T13:19:15;100908.75;;;8.23;65.10
52032;BME280;38044;45.148;39.604;2023-02-18T13:21:44;100842.53;;;7.72;65.43
52032;BME280;38044;45.148;39.604;2023-02-18T13:24:37;100898.25;;;8.01;65.26
52032;BME280;38044;45.148;39.604;2023-02-18T13:27:11;100892.09;;;7.95;64.94
52032;BME280;38044;45.148;39.604;2023-02-18T13:32:35;100863.47;;;7.96;64.98
52032;BME280;38044;45.148;39.604;2023-02-18T13:35:28;100732.47;;;7.12;64.83
52032;BME280;38044;45.148;39.604;2023-02-18T13:40:29;100825.66;;;7.51;65.55
52032;BME280;38044;45.148;39.604;2023-02-18T13:43:34;100866.09;;;7.80;65.49
52032;BME280;38044;45.148;39.604;2023-02-18T13:46:14;100841.41;;;7.48;66.04
52032;BME280;38044;45.148;39.604;2023-02-18T13:51:58;100820.75;;;7.28;66.61
52032;BME280;38044;45.148;39.604;2023-02-18T13:56:40;100855.34;;;7.55;66.33
52032;BME280;38044;45.148;39.604;2023-02-18T13:59:19;100798.78;;;7.20;66.65
52032;BME280;38044;45.148;39.604;2023-02-18T14:01:51;100843.00;;;7.43;66.72
52032;BME280;38044;45.148;39.604;2023-02-18T14:04:48;100843.81;;;7.39;66.47
52032;BME280;38044;45.148;39.604;2023-02-18T14:18:19;100795.59;;;7.23;66.67
52032;BME280;38044;45.148;39.604;2023-02-18T14:20:48;100823.34;;;7.12;67.09
52032;BME280;38044;45.148;39.604;2023-02-18T14:33:40;100796.03;;;6.95;68.05
52032;BME280;38044;45.148;39.604;2023-02-18T14:50:02;100728.78;;;6.56;68.47
52032;BME280;38044;45.148;39.604;2023-02-18T14:52:57;100605.06;;;5.87;68.94
52032;BME280;38044;45.148;39.604;2023-02-18T14:55:32;100752.97;;;6.81;68.59
52032;BME280;38044;45.148;39.604;2023-02-18T14:58:02;100741.97;;;6.72;69.04
52032;BME280;38044;45.148;39.604;2023-02-18T15:00:33;100736.88;;;6.71;69.36
52032;BME280;38044;45.148;39.604;2023-02-18T15:03:01;100744.31;;;6.64;69.73
52032;BME280;38044;45.148;39.604;2023-02-18T15:05:29;100714.31;;;6.46;69.74
52032;BME280;38044;45.148;39.604;2023-02-18T15:08:04;100705.78;;;6.44;70.11
52032;BME280;38044;45.148;39.604;2023-02-18T15:10:40;100732.00;;;6.58;70.25
52032;BME280;38044;45.148;39.604;2023-02-18T15:13:13;100724.53;;;6.60;70.18
52032;BME280;38044;45.148;39.604;2023-02-18T15:15:42;100584.94;;;5.69;70.25
52032;BME280;38044;45.148;39.604;2023-02-18T15:18:28;100637.47;;;6.06;70.31
52032;BME280;38044;45.148;39.604;2023-02-18T15:20:55;100699.84;;;6.37;71.04
52032;BME280;38044;45.148;39.604;2023-02-18T15:23:21;100577.75;;;5.70;70.78
52032;BME280;38044;45.148;39.604;2023-02-18T15:25:52;100707.38;;;6.45;71.20
52032;BME280;38044;45.148;39.604;2023-02-18T15:28:30;100718.38;;;6.59;71.61
52032;BME280;38044;45.148;39.604;2023-02-18T15:31:01;100723.69;;;6.54;72.07
52032;BME280;38044;45.148;39.604;2023-02-18T15:33:28;100721.53;;;6.51;72.21
52032;BME280;38044;45.148;39.604;2023-02-18T15:36:05;100722.34;;;6.51;72.53
52032;BME280;38044;45.148;39.604;2023-02-18T15:38:32;100564.03;;;5.51;72.44
52032;BME280;38044;45.148;39.604;2023-02-18T15:40:58;100708.16;;;6.46;72.61
52032;BME280;38044;45.148;39.604;2023-02-18T15:43:25;100709.47;;;6.43;72.86